createdAt,value
2022-08-08T00:00:54.070Z,17.68
2022-08-08T00:03:20.176Z,17.68
2022-08-08T00:06:06.165Z,17.67
2022-08-08T00:08:49.771Z,17.66
2022-08-08T00:11:25.121Z,17.67
2022-08-08T00:14:15.710Z,17.67
2022-08-08T00:17:27.267Z,17.66
2022-08-08T00:20:06.455Z,17.70
2022-08-08T00:22:51.411Z,17.70
2022-08-08T00:25:46.597Z,17.68
2022-08-08T00:28:34.888Z,17.63
2022-08-08T00:32:19.870Z,17.62
2022-08-08T00:34:51.771Z,17.60
2022-08-08T00:38:02.425Z,17.54
2022-08-08T00:41:15.932Z,17.52
2022-08-08T00:44:05.775Z,17.53
2022-08-08T00:47:04.575Z,17.56
2022-08-08T00:50:07.834Z,17.65
2022-08-08T00:52:58.622Z,17.66
2022-08-08T00:56:23.048Z,17.65
2022-08-08T00:59:47.161Z,17.67
2022-08-08T01:04:01.051Z,17.54
2022-08-08T01:06:47.562Z,17.38
2022-08-08T01:09:59.333Z,17.33
2022-08-08T01:13:08.703Z,17.27
2022-08-08T01:16:27.807Z,17.27
2022-08-08T01:20:01.826Z,17.33
2022-08-08T01:24:02.832Z,17.43
2022-08-08T01:26:30.833Z,17.47
2022-08-08T01:29:59.899Z,17.49
2022-08-08T01:33:00.938Z,17.48
2022-08-08T01:35:53.528Z,17.48
2022-08-08T01:38:56.134Z,17.48
2022-08-08T01:45:30.383Z,17.52
2022-08-08T01:48:23.345Z,17.49
2022-08-08T01:51:30.483Z,17.47
2022-08-08T01:55:45.149Z,17.40
2022-08-08T01:58:11.397Z,17.23
2022-08-08T02:01:04.435Z,17.14
2022-08-08T02:03:55.178Z,17.12
2022-08-08T02:07:03.999Z,17.08
2022-08-08T02:10:01.661Z,17.06
2022-08-08T02:12:32.357Z,17.08
2022-08-08T02:15:11.395Z,16.96
2022-08-08T02:17:58.906Z,16.87
2022-08-08T02:21:23.489Z,16.83
2022-08-08T02:24:25.238Z,16.83
2022-08-08T02:27:12.947Z,16.84
2022-08-08T02:30:21.666Z,16.77
2022-08-08T02:34:00.376Z,16.85
2022-08-08T02:37:06.075Z,16.98
2022-08-08T02:39:58.225Z,17.07
2022-08-08T02:44:35.538Z,17.08
2022-08-08T02:46:34.126Z,17.09
2022-08-08T02:49:50.653Z,17.09
2022-08-08T02:53:12.586Z,17.06
2022-08-08T02:56:18.190Z,17.02
2022-08-08T02:59:37.261Z,16.97
2022-08-08T03:02:30.593Z,17.03
2022-08-08T03:05:32.838Z,17.05
2022-08-08T03:09:01.305Z,17.00
2022-08-08T03:12:01.095Z,16.98
2022-08-08T03:18:07.689Z,16.95
2022-08-08T03:23:54.792Z,16.94
2022-08-08T03:26:26.503Z,16.81
2022-08-08T03:29:00.019Z,16.76
2022-08-08T03:32:06.163Z,16.72
2022-08-08T03:34:35.131Z,16.68
2022-08-08T03:37:59.052Z,16.69
2022-08-08T03:40:02.273Z,16.68
2022-08-08T03:42:31.423Z,16.74
2022-08-08T03:44:58.645Z,16.84
2022-08-08T03:47:39.421Z,16.89
2022-08-08T03:50:19.923Z,16.91
2022-08-08T03:52:47.651Z,16.96
2022-08-08T03:55:20.352Z,16.99
2022-08-08T03:58:32.414Z,17.05
2022-08-08T04:01:02.746Z,17.07
2022-08-08T04:03:57.283Z,17.14
2022-08-08T04:06:29.963Z,17.12
2022-08-08T04:09:08.785Z,17.17
2022-08-08T04:11:57.911Z,17.22
2022-08-08T04:14:33.880Z,17.23
2022-08-08T04:17:04.370Z,17.25
2022-08-08T04:19:36.975Z,17.26
2022-08-08T04:22:04.601Z,17.12
2022-08-08T04:24:31.832Z,17.04
2022-08-08T04:27:01.570Z,17.00
2022-08-08T04:29:36.693Z,16.95
2022-08-08T04:32:06.934Z,16.96
2022-08-08T04:34:49.329Z,16.96
2022-08-08T04:37:21.014Z,16.98
2022-08-08T04:40:06.068Z,16.93
2022-08-08T04:42:36.995Z,16.97
2022-08-08T04:45:05.314Z,17.00
2022-08-08T04:47:32.176Z,17.00
2022-08-08T04:50:04.904Z,17.02
2022-08-08T04:52:33.792Z,16.98
2022-08-08T04:55:02.372Z,16.99
2022-08-08T04:57:31.879Z,17.00
2022-08-08T05:00:02.304Z,17.02
2022-08-08T05:02:31.104Z,16.95
2022-08-08T05:04:59.741Z,16.97
2022-08-08T05:07:38.038Z,17.02
2022-08-08T05:10:12.948Z,17.04
2022-08-08T05:12:53.478Z,17.05
2022-08-08T05:15:31.491Z,17.10
2022-08-08T05:18:13.871Z,17.08
2022-08-08T05:20:49.873Z,17.02
2022-08-08T05:23:19.529Z,17.04
2022-08-08T05:25:48.928Z,17.08
2022-08-08T05:28:16.647Z,17.10
2022-08-08T05:31:19.101Z,17.15
2022-08-08T05:33:50.865Z,17.17
2022-08-08T05:36:25.726Z,17.12
2022-08-08T05:38:58.546Z,17.13
2022-08-08T05:41:25.869Z,17.07
2022-08-08T05:44:04.952Z,17.04
2022-08-08T05:46:32.998Z,16.93
2022-08-08T05:49:00.772Z,16.95
2022-08-08T05:51:27.918Z,16.92
2022-08-08T05:54:28.941Z,16.93
2022-08-08T05:57:04.721Z,16.98
2022-08-08T05:59:59.975Z,17.00
2022-08-08T06:02:44.019Z,16.92
2022-08-08T06:05:33.520Z,16.98
2022-08-08T06:08:09.417Z,17.10
2022-08-08T06:10:49.086Z,17.21
2022-08-08T06:13:22.416Z,17.21
2022-08-08T06:15:53.449Z,17.20
2022-08-08T06:18:23.121Z,17.25
2022-08-08T06:20:57.622Z,17.33
2022-08-08T06:23:48.506Z,17.40
2022-08-08T06:26:38.299Z,17.48
2022-08-08T06:29:26.803Z,17.55
2022-08-08T06:32:10.678Z,17.60
2022-08-08T06:35:11.540Z,17.60
2022-08-08T06:37:37.858Z,17.54
2022-08-08T06:40:07.301Z,17.49
2022-08-08T06:42:47.467Z,17.49
2022-08-08T06:45:16.742Z,17.43
2022-08-08T06:47:52.367Z,17.46
2022-08-08T06:50:32.359Z,17.53
2022-08-08T06:53:09.819Z,17.58
2022-08-08T06:55:43.221Z,17.56
2022-08-08T06:58:10.334Z,17.64
2022-08-08T07:00:43.123Z,17.71
2022-08-08T07:03:52.366Z,17.76
2022-08-08T07:06:09.567Z,17.80
2022-08-08T07:08:42.408Z,17.74
2022-08-08T07:11:22.611Z,17.74
2022-08-08T07:14:00.766Z,17.61
2022-08-08T07:17:00.972Z,17.56
2022-08-08T07:20:01.270Z,17.55
2022-08-08T07:22:42.545Z,17.56
2022-08-08T07:25:14.388Z,17.67
2022-08-08T07:28:02.482Z,17.69
2022-08-08T07:30:35.356Z,17.56
2022-08-08T07:33:04.931Z,17.61
2022-08-08T07:35:35.407Z,17.61
2022-08-08T07:38:10.312Z,17.63
2022-08-08T07:40:47.325Z,17.67
2022-08-08T07:43:15.726Z,17.83
2022-08-08T07:45:51.548Z,17.86
2022-08-08T07:48:32.428Z,17.96
2022-08-08T07:51:01.360Z,17.97
2022-08-08T07:54:02.401Z,18.10
2022-08-08T07:56:44.023Z,18.21
2022-08-08T07:59:14.917Z,18.46
2022-08-08T08:02:36.671Z,18.50
2022-08-08T08:04:44.279Z,18.62
2022-08-08T08:07:16.042Z,18.84
2022-08-08T08:09:42.787Z,19.08
2022-08-08T08:12:31.366Z,19.29
2022-08-08T08:15:05.133Z,19.54
2022-08-08T08:17:36.554Z,19.70
2022-08-08T08:20:17.726Z,19.73
2022-08-08T08:22:44.418Z,19.71
2022-08-08T08:25:16.978Z,19.77
2022-08-08T08:27:46.895Z,19.96
2022-08-08T08:30:14.456Z,20.10
2022-08-08T08:32:51.121Z,20.14
2022-08-08T08:35:29.318Z,20.14
2022-08-08T08:38:15.644Z,20.27
2022-08-08T08:40:44.143Z,20.42
2022-08-08T08:43:18.748Z,20.54
2022-08-08T08:45:48.218Z,20.59
2022-08-08T08:48:19.212Z,20.66
2022-08-08T08:50:52.142Z,20.77
2022-08-08T08:53:28.349Z,20.89
2022-08-08T08:56:07.816Z,21.08
2022-08-08T08:58:41.388Z,21.01
2022-08-08T09:01:13.366Z,21.21
2022-08-08T09:03:46.504Z,21.23
2022-08-08T09:06:29.016Z,21.26
2022-08-08T09:09:39.868Z,21.26
2022-08-08T09:12:14.967Z,21.39
2022-08-08T09:14:45.216Z,21.43
2022-08-08T09:17:18.955Z,21.57
2022-08-08T09:21:58.545Z,21.72
2022-08-08T09:22:36.688Z,21.76
2022-08-08T09:25:07.398Z,21.66
2022-08-08T09:27:56.389Z,21.63
2022-08-08T09:30:24.545Z,21.61
2022-08-08T09:33:12.819Z,21.80
2022-08-08T09:35:48.821Z,21.79
2022-08-08T09:38:52.566Z,21.96
2022-08-08T09:42:15.234Z,21.98
2022-08-08T09:44:57.221Z,21.84
2022-08-08T09:48:09.427Z,21.84
2022-08-08T09:50:23.459Z,21.90
2022-08-08T09:52:56.387Z,21.80
2022-08-08T09:56:03.844Z,21.83
2022-08-08T09:58:27.701Z,21.74
2022-08-08T10:01:14.207Z,21.78
2022-08-08T10:03:46.277Z,21.75
2022-08-08T10:06:29.295Z,21.65
2022-08-08T10:08:56.762Z,21.53
2022-08-08T10:12:23.169Z,21.56
2022-08-08T10:14:34.928Z,21.57
2022-08-08T10:16:59.003Z,21.63
2022-08-08T10:19:46.210Z,21.61
2022-08-08T10:22:26.866Z,21.58
2022-08-08T10:25:02.095Z,21.44
2022-08-08T10:27:34.365Z,21.35
2022-08-08T10:30:03.884Z,21.41
2022-08-08T10:32:34.052Z,21.38
2022-08-08T10:35:04.750Z,21.43
2022-08-08T10:37:42.267Z,21.39
2022-08-08T10:40:17.523Z,21.38
2022-08-08T10:42:48.856Z,21.38
2022-08-08T10:45:16.494Z,21.30
2022-08-08T10:47:48.569Z,21.33
2022-08-08T10:50:23.672Z,21.27
2022-08-08T10:52:51.401Z,21.39
2022-08-08T10:55:39.849Z,21.62
2022-08-08T10:58:10.718Z,21.77
2022-08-08T11:00:48.656Z,21.82
2022-08-08T11:03:37.207Z,21.91
2022-08-08T11:06:16.565Z,22.03
2022-08-08T11:08:53.582Z,22.12
2022-08-08T11:11:32.675Z,22.21
2022-08-08T11:14:12.195Z,22.28
2022-08-08T11:16:46.832Z,22.30
2022-08-08T11:19:15.569Z,22.43
2022-08-08T11:21:54.257Z,22.50
2022-08-08T11:24:26.268Z,22.51
2022-08-08T11:26:57.079Z,22.51
2022-08-08T11:29:41.287Z,22.44
2022-08-08T11:32:14.397Z,22.26
2022-08-08T11:35:08.299Z,22.14
2022-08-08T11:38:36.446Z,22.28
2022-08-08T11:40:22.401Z,22.33
2022-08-08T11:42:52.678Z,22.27
2022-08-08T11:45:22.790Z,22.27
2022-08-08T11:48:02.656Z,22.41
2022-08-08T11:50:33.797Z,22.40
2022-08-08T11:53:06.274Z,22.41
2022-08-08T11:55:36.633Z,22.39
2022-08-08T11:58:15.118Z,22.46
2022-08-08T12:00:58.556Z,22.64
2022-08-08T12:03:31.421Z,22.66
2022-08-08T12:05:58.422Z,22.72
2022-08-08T12:08:33.824Z,22.70
2022-08-08T12:11:03.402Z,22.66
2022-08-08T12:13:37.742Z,22.63
2022-08-08T12:16:20.774Z,22.74
2022-08-08T12:19:02.342Z,22.73
2022-08-08T12:22:00.035Z,22.70
2022-08-08T12:24:27.925Z,22.72
2022-08-08T12:26:56.978Z,22.68
2022-08-08T12:29:42.016Z,22.73
2022-08-08T12:32:19.973Z,22.79
2022-08-08T12:35:17.979Z,22.79
2022-08-08T12:38:01.372Z,22.90
2022-08-08T12:40:58.472Z,22.99
2022-08-08T12:43:47.998Z,23.05
2022-08-08T12:46:25.364Z,22.97
2022-08-08T12:51:58.780Z,23.11
2022-08-08T12:54:36.892Z,23.11
2022-08-08T12:57:18.074Z,23.00
2022-08-08T13:00:03.754Z,22.92
2022-08-08T13:02:35.835Z,22.92
2022-08-08T13:05:19.048Z,22.94
2022-08-08T13:08:02.084Z,23.00
2022-08-08T13:10:32.989Z,23.06
2022-08-08T13:13:06.096Z,22.96
2022-08-08T13:15:35.983Z,22.94
2022-08-08T13:18:11.612Z,23.01
2022-08-08T13:20:45.467Z,23.10
2022-08-08T13:23:41.819Z,23.11
2022-08-08T13:26:14.481Z,23.12
2022-08-08T13:28:45.425Z,23.08
2022-08-08T13:31:16.299Z,23.17
2022-08-08T13:33:46.314Z,23.19
2022-08-08T13:36:14.592Z,23.30
2022-08-08T13:38:44.883Z,23.35
2022-08-08T13:41:16.892Z,23.27
2022-08-08T13:43:49.828Z,23.26
2022-08-08T13:46:26.995Z,23.34
2022-08-08T13:49:11.859Z,23.23
2022-08-08T13:52:07.697Z,23.20
2022-08-08T13:54:36.430Z,23.14
2022-08-08T13:57:15.746Z,23.19
2022-08-08T13:59:49.222Z,23.29
2022-08-08T14:02:20.712Z,23.42
2022-08-08T14:05:05.086Z,23.58
2022-08-08T14:07:49.840Z,23.57
2022-08-08T14:10:33.485Z,23.58
2022-08-08T14:13:20.798Z,23.60
2022-08-08T14:16:07.887Z,23.51
2022-08-08T14:19:10.887Z,23.48
2022-08-08T14:21:48.855Z,23.48
2022-08-08T14:24:32.223Z,23.40
2022-08-08T14:26:58.935Z,23.42
2022-08-08T14:29:30.404Z,23.48
2022-08-08T14:32:10.903Z,23.53
2022-08-08T14:34:42.412Z,23.60
2022-08-08T14:37:13.001Z,23.61
2022-08-08T14:40:06.615Z,23.55
2022-08-08T14:42:55.213Z,23.21
2022-08-08T14:45:33.755Z,23.24
2022-08-08T14:48:17.631Z,23.20
2022-08-08T14:51:04.522Z,23.20
2022-08-08T14:53:54.424Z,23.30
2022-08-08T14:56:24.733Z,23.24
2022-08-08T14:58:52.543Z,23.33
2022-08-08T15:01:40.719Z,23.43
2022-08-08T15:04:09.745Z,23.59
2022-08-08T15:06:37.530Z,23.70
2022-08-08T15:09:06.947Z,23.78
2022-08-08T15:11:43.092Z,23.77
2022-08-08T15:14:14.512Z,23.70
2022-08-08T15:16:44.282Z,23.73
2022-08-08T15:19:11.318Z,23.85
2022-08-08T15:21:42.770Z,23.90
2022-08-08T15:24:12.849Z,23.91
2022-08-08T15:26:41.699Z,23.96
2022-08-08T15:29:08.482Z,23.96
2022-08-08T15:32:17.138Z,23.91
2022-08-08T15:34:31.382Z,23.76
2022-08-08T15:37:02.333Z,23.68
2022-08-08T15:39:37.997Z,23.60
2022-08-08T15:42:10.143Z,23.40
2022-08-08T15:44:38.493Z,23.30
2022-08-08T15:47:07.333Z,23.20
2022-08-08T15:49:44.383Z,23.10
2022-08-08T15:52:16.019Z,22.97
2022-08-08T15:54:46.173Z,22.95
2022-08-08T15:57:18.299Z,22.95
2022-08-08T16:00:06.657Z,22.93
2022-08-08T16:02:32.381Z,22.86
2022-08-08T16:05:00.795Z,22.86
2022-08-08T16:07:52.078Z,22.83
2022-08-08T16:13:14.922Z,22.76
2022-08-08T16:13:33.889Z,22.66
2022-08-08T16:15:59.166Z,22.65
2022-08-08T16:18:27.590Z,22.68
2022-08-08T16:21:00.214Z,22.61
2022-08-08T16:23:31.919Z,22.53
2022-08-08T16:26:04.147Z,22.53
2022-08-08T16:28:35.751Z,22.47
2022-08-08T16:31:07.475Z,22.44
2022-08-08T16:33:35.981Z,22.39
2022-08-08T16:36:05.975Z,22.37
2022-08-08T16:38:44.478Z,22.31
2022-08-08T16:41:20.306Z,22.24
2022-08-08T16:43:50.788Z,22.18
2022-08-08T16:46:42.844Z,22.15
2022-08-08T16:49:07.808Z,22.09
2022-08-08T16:55:07.214Z,22.04
2022-08-08T16:55:22.927Z,22.00
2022-08-08T16:57:43.534Z,21.92
2022-08-08T16:59:58.902Z,21.89
2022-08-08T17:02:43.192Z,21.82
2022-08-08T17:05:13.080Z,21.79
2022-08-08T17:07:41.856Z,21.74
2022-08-08T17:10:11.811Z,21.70
2022-08-08T17:12:52.837Z,21.66
2022-08-08T17:15:22.837Z,21.61
2022-08-08T17:18:01.448Z,21.54
2022-08-08T17:20:31.401Z,21.53
2022-08-08T17:23:18.328Z,21.51
2022-08-08T17:25:52.637Z,21.46
2022-08-08T17:28:30.735Z,21.41
2022-08-08T17:31:15.087Z,21.36
2022-08-08T17:34:48.044Z,21.30
2022-08-08T17:36:44.202Z,21.28
2022-08-08T17:40:04.162Z,21.24
2022-08-08T17:42:18.156Z,21.19
2022-08-08T17:44:46.166Z,21.16
2022-08-08T17:47:15.976Z,21.12
2022-08-08T17:49:52.667Z,21.10
2022-08-08T17:52:23.201Z,21.05
2022-08-08T17:54:56.166Z,21.03
2022-08-08T17:57:24.365Z,20.97
2022-08-08T17:59:58.893Z,20.91
2022-08-08T18:02:29.976Z,20.85
2022-08-08T18:05:04.445Z,20.79
2022-08-08T18:08:01.191Z,20.77
2022-08-08T18:10:19.776Z,20.73
2022-08-08T18:12:57.864Z,20.67
2022-08-08T18:15:25.482Z,20.62
2022-08-08T18:18:08.951Z,20.56
2022-08-08T18:20:59.731Z,20.49
2022-08-08T18:23:26.795Z,20.41
2022-08-08T18:25:53.524Z,20.34
2022-08-08T18:28:23.605Z,20.24
2022-08-08T18:30:52.392Z,20.16
2022-08-08T18:33:36.377Z,20.11
2022-08-08T18:36:18.838Z,19.99
2022-08-08T18:38:50.427Z,19.89
2022-08-08T18:41:19.213Z,19.83
2022-08-08T18:44:05.328Z,19.78
2022-08-08T18:46:54.198Z,19.76
2022-08-08T18:49:19.477Z,19.68
2022-08-08T18:51:54.022Z,19.65
2022-08-08T18:54:27.291Z,19.61
2022-08-08T18:56:57.587Z,19.54
2022-08-08T18:59:24.578Z,19.49
2022-08-08T19:02:27.836Z,19.34
2022-08-08T19:04:49.335Z,19.27
2022-08-08T19:07:18.277Z,19.20
2022-08-08T19:09:48.883Z,19.18
2022-08-08T19:12:32.431Z,19.15
2022-08-08T19:15:01.906Z,19.05
2022-08-08T19:17:47.963Z,19.01
2022-08-08T19:20:16.286Z,18.96
2022-08-08T19:22:44.573Z,18.88
2022-08-08T19:26:20.466Z,18.77
2022-08-08T19:28:00.070Z,18.71
2022-08-08T19:30:27.507Z,18.66
2022-08-08T19:32:59.075Z,18.64
2022-08-08T19:35:45.556Z,18.61
2022-08-08T19:38:17.276Z,18.60
2022-08-08T19:40:55.755Z,18.57
2022-08-08T19:43:28.357Z,18.53
2022-08-08T19:46:00.642Z,18.49
2022-08-08T19:48:31.178Z,18.49
2022-08-08T19:51:00.843Z,18.43
2022-08-08T19:53:53.674Z,18.37
2022-08-08T19:56:16.454Z,18.17
2022-08-08T19:58:52.897Z,18.11
2022-08-08T20:01:31.761Z,18.07
2022-08-08T20:04:08.716Z,18.02
2022-08-08T20:06:35.953Z,17.99
2022-08-08T20:09:04.616Z,17.97
2022-08-08T20:11:42.881Z,17.92
2022-08-08T20:14:32.211Z,17.84
2022-08-08T20:16:56.794Z,17.78
2022-08-08T20:19:34.760Z,17.76
2022-08-08T20:22:20.790Z,17.70
2022-08-08T20:24:53.651Z,17.64
2022-08-08T20:27:43.925Z,17.61
2022-08-08T20:30:12.112Z,17.59
2022-08-08T20:32:58.933Z,17.56
2022-08-08T20:35:56.977Z,17.51
2022-08-08T20:38:14.376Z,17.44
2022-08-08T20:40:41.804Z,17.37
2022-08-08T20:43:22.890Z,17.32
2022-08-08T20:46:03.671Z,17.30
2022-08-08T20:48:30.737Z,17.28
2022-08-08T20:50:58.056Z,17.24
2022-08-08T20:53:58.351Z,17.21
2022-08-08T20:56:14.019Z,17.18
2022-08-08T20:58:47.706Z,17.18
2022-08-08T21:01:20.349Z,17.17
2022-08-08T21:03:55.792Z,17.22
2022-08-08T21:06:52.683Z,17.17
2022-08-08T21:09:15.795Z,17.10
2022-08-08T21:11:50.856Z,17.07
2022-08-08T21:14:19.077Z,17.06
2022-08-08T21:17:00.708Z,16.95
2022-08-08T21:19:44.176Z,16.91
2022-08-08T21:22:11.469Z,16.90
2022-08-08T21:24:39.579Z,16.83
2022-08-08T21:27:15.356Z,16.83
2022-08-08T21:30:03.038Z,16.80
2022-08-08T21:32:31.584Z,16.78
2022-08-08T21:36:17.624Z,16.74
2022-08-08T21:37:54.043Z,16.74
2022-08-08T21:40:22.095Z,16.68
2022-08-08T21:42:58.514Z,16.69
2022-08-08T21:48:01.787Z,16.72
2022-08-08T21:48:16.340Z,16.73
2022-08-08T21:50:48.367Z,16.74
2022-08-08T21:54:31.287Z,16.71
2022-08-08T21:56:29.468Z,16.64
2022-08-08T21:58:55.828Z,16.61
2022-08-08T22:01:38.795Z,16.60
2022-08-08T22:04:07.213Z,16.55
2022-08-08T22:06:37.989Z,16.56
2022-08-08T22:09:08.430Z,16.49
2022-08-08T22:12:02.971Z,16.50
2022-08-08T22:14:23.763Z,16.52
2022-08-08T22:16:53.794Z,16.52
2022-08-08T22:19:23.979Z,16.51
2022-08-08T22:21:52.884Z,16.51
2022-08-08T22:24:23.846Z,16.47
2022-08-08T22:27:01.584Z,16.33
2022-08-08T22:30:01.469Z,16.30
2022-08-08T22:32:19.043Z,16.27
2022-08-08T22:34:50.675Z,16.24
2022-08-08T22:37:49.676Z,16.22
2022-08-08T22:40:07.498Z,16.19
2022-08-08T22:42:40.203Z,16.18
2022-08-08T22:45:12.591Z,16.14
2022-08-08T22:47:41.128Z,16.11
2022-08-08T22:50:26.369Z,16.09
2022-08-08T22:54:31.104Z,16.06
2022-08-08T22:55:58.972Z,16.08
2022-08-08T22:58:34.061Z,16.07
2022-08-08T23:01:30.557Z,16.07
2022-08-08T23:03:56.421Z,16.00
2022-08-08T23:06:24.712Z,15.94
2022-08-08T23:08:55.768Z,15.92
2022-08-08T23:11:31.304Z,15.85
2022-08-08T23:14:14.816Z,15.76
2022-08-08T23:16:43.829Z,15.74
2022-08-08T23:19:11.455Z,15.68
2022-08-08T23:21:39.086Z,15.69
2022-08-08T23:24:07.007Z,15.73
2022-08-08T23:26:34.228Z,15.73
2022-08-08T23:29:01.849Z,15.69
2022-08-08T23:31:28.710Z,15.75
2022-08-08T23:34:17.562Z,15.73
2022-08-08T23:36:42.383Z,15.69
2022-08-08T23:39:09.672Z,15.67
2022-08-08T23:41:43.547Z,15.64
2022-08-08T23:44:14.358Z,15.61
2022-08-08T23:49:02.529Z,15.58
2022-08-08T23:49:27.902Z,15.53
2022-08-08T23:52:04.647Z,15.48
2022-08-08T23:54:43.574Z,15.41
2022-08-08T23:57:27.777Z,15.42
